Mount Carmel, Tennessee
Current Conditions -  °F | °C
As of 3:53 PM on Monday 24 Nov 2014 (Local Time) from KTRI Reporting Station
Few Clouds Few Clouds  
Wind Chill: 70°   Ceiling: Unl
Heat Index: 70°   Visibility: 10mi
Dew Point: 42°   Wind: 28mph
Humidity: 36%   Direction: 230°SW
Pressure: 29.73"   Gusts: 37mph
Location:  36.55°N, 82.66°W
Report Text: KTRI 242053Z 23024G32KT 10SM FEW065 21/06 A2973 RMK AO2 PK WND 25034/2021 SLP046 T02110056 53009
Loading
Personal Weather Stations






























Interactive Weather Map New forecast layout! Learn more

10-Day Weather Forecast

Advertisements
Track Severe Weather on mobile